createdAt,value
2018-04-08T00:02:48.285Z,4.80
2018-04-08T00:05:49.948Z,4.97
2018-04-08T00:08:51.626Z,5.03
2018-04-08T00:11:53.314Z,4.70
2018-04-08T00:14:55.667Z,4.53
2018-04-08T00:17:57.375Z,5.50
2018-04-08T00:20:59.033Z,4.53
2018-04-08T00:24:00.692Z,4.83
2018-04-08T00:27:02.347Z,4.90
2018-04-08T00:30:04.009Z,4.93
2018-04-08T00:33:05.695Z,4.43
2018-04-08T00:36:07.386Z,4.77
2018-04-08T00:39:09.088Z,4.97
2018-04-08T00:42:10.746Z,4.23
2018-04-08T00:45:12.431Z,4.70
2018-04-08T00:48:14.090Z,4.80
2018-04-08T00:51:15.762Z,5.20
2018-04-08T00:54:23.412Z,4.70
2018-04-08T00:57:25.115Z,4.53
2018-04-08T01:00:26.791Z,4.60
2018-04-08T01:03:28.468Z,4.80
2018-04-08T01:06:30.329Z,5.33
2018-04-08T01:09:32.019Z,4.50
2018-04-08T01:12:33.706Z,4.90
2018-04-08T01:15:35.432Z,4.87
2018-04-08T01:18:37.105Z,4.63
2018-04-08T01:21:38.751Z,4.73
2018-04-08T01:24:40.444Z,4.87
2018-04-08T01:27:42.094Z,4.90
2018-04-08T01:30:43.752Z,4.57
2018-04-08T01:33:45.427Z,4.50
2018-04-08T01:36:47.092Z,4.43
2018-04-08T01:39:48.790Z,4.53
2018-04-08T01:42:50.435Z,4.77
2018-04-08T01:45:52.104Z,4.70
2018-04-08T01:48:53.758Z,4.80
2018-04-08T01:51:55.423Z,4.50
2018-04-08T01:54:57.100Z,4.50
2018-04-08T01:57:58.764Z,4.40
2018-04-08T02:01:00.416Z,4.30
2018-04-08T02:04:02.105Z,4.47
2018-04-08T02:07:03.788Z,4.40
2018-04-08T02:10:05.467Z,4.13
2018-04-08T02:13:07.159Z,4.77
2018-04-08T02:16:08.837Z,4.23
2018-04-08T02:19:10.495Z,4.57
2018-04-08T02:22:12.142Z,4.93
2018-04-08T02:25:13.811Z,4.10
2018-04-08T02:28:15.449Z,4.40
2018-04-08T02:31:17.120Z,4.37
2018-04-08T02:34:18.804Z,4.20
2018-04-08T02:37:20.466Z,4.20
2018-04-08T02:40:22.131Z,4.70
2018-04-08T02:43:23.773Z,4.03
2018-04-08T02:46:25.422Z,4.83
2018-04-08T02:49:27.080Z,4.63
2018-04-08T02:52:28.723Z,4.37
2018-04-08T02:55:30.376Z,4.37
2018-04-08T02:58:32.074Z,4.40
2018-04-08T03:01:33.715Z,4.37
2018-04-08T03:04:35.373Z,4.43
2018-04-08T03:07:37.044Z,4.37
2018-04-08T03:10:38.739Z,4.37
2018-04-08T03:13:40.395Z,4.10
2018-04-08T03:16:42.074Z,4.13
2018-04-08T03:19:43.744Z,4.27
2018-04-08T03:22:45.403Z,4.33
2018-04-08T03:25:47.071Z,4.33
2018-04-08T03:28:48.722Z,3.97
2018-04-08T03:31:50.403Z,3.90
2018-04-08T03:34:52.083Z,4.23
2018-04-08T03:37:53.752Z,4.10
2018-04-08T03:40:55.414Z,4.17
2018-04-08T03:43:57.054Z,4.07
2018-04-08T03:46:58.715Z,3.80
2018-04-08T03:50:00.395Z,3.97
2018-04-08T03:53:02.055Z,4.17
2018-04-08T03:56:03.732Z,4.03
2018-04-08T03:59:05.387Z,4.40
2018-04-08T04:02:07.042Z,3.90
2018-04-08T04:05:08.702Z,4.13
2018-04-08T04:08:10.363Z,3.80
2018-04-08T04:11:12.029Z,4.20
2018-04-08T04:14:13.680Z,3.90
2018-04-08T04:17:15.784Z,3.90
2018-04-08T04:20:23.289Z,3.93
2018-04-08T04:23:30.860Z,4.40
2018-04-08T04:26:32.522Z,4.07
2018-04-08T04:29:34.204Z,4.60
2018-04-08T04:32:35.903Z,3.90
2018-04-08T04:35:37.603Z,4.30
2018-04-08T04:38:39.385Z,4.63
2018-04-08T04:41:41.066Z,4.50
2018-04-08T04:44:42.714Z,3.97
2018-04-08T04:47:44.360Z,3.87
2018-04-08T04:50:46.019Z,4.37
2018-04-08T04:53:47.687Z,3.70
2018-04-08T04:56:49.362Z,4.17
2018-04-08T04:59:51.018Z,4.40
2018-04-08T05:02:52.681Z,4.57
2018-04-08T05:05:54.332Z,3.93
2018-04-08T05:08:56.064Z,4.50
2018-04-08T05:11:57.730Z,3.93
2018-04-08T05:14:59.380Z,4.30
2018-04-08T05:18:01.028Z,4.03
2018-04-08T05:21:02.688Z,3.77
2018-04-08T05:24:04.366Z,3.80
2018-04-08T05:27:06.020Z,4.13
2018-04-08T05:30:07.707Z,4.33
2018-04-08T05:33:09.386Z,4.60
2018-04-08T05:36:11.046Z,3.93
2018-04-08T05:39:12.724Z,4.33
2018-04-08T05:42:14.401Z,4.57
2018-04-08T05:45:16.059Z,4.40
2018-04-08T05:48:17.762Z,3.87
2018-04-08T05:51:19.473Z,4.40
2018-04-08T05:54:21.138Z,4.70
2018-04-08T05:57:22.813Z,4.30
2018-04-08T06:00:24.487Z,4.27
2018-04-08T06:03:26.221Z,4.93
2018-04-08T06:06:27.913Z,4.53
2018-04-08T06:09:29.603Z,5.07
2018-04-08T06:12:31.276Z,5.63
2018-04-08T06:15:32.947Z,5.93
2018-04-08T06:18:34.615Z,4.90
2018-04-08T06:21:36.665Z,4.97
2018-04-08T06:24:38.363Z,5.20
2018-04-08T06:27:40.059Z,5.43
2018-04-08T06:30:41.738Z,5.13
2018-04-08T06:33:43.441Z,5.07
2018-04-08T06:36:45.144Z,4.87
2018-04-08T06:39:46.863Z,5.23
2018-04-08T06:42:48.556Z,4.73
2018-04-08T06:45:50.259Z,5.40
2018-04-08T06:48:51.972Z,4.70
2018-04-08T06:51:53.732Z,4.70
2018-04-08T06:54:55.589Z,5.10
2018-04-08T06:57:57.266Z,6.90
2018-04-08T07:00:58.982Z,5.00
2018-04-08T07:04:00.683Z,5.57
2018-04-08T07:07:02.404Z,5.23
2018-04-08T07:10:04.092Z,5.40
2018-04-08T07:13:05.890Z,5.27
2018-04-08T07:16:07.588Z,5.47
2018-04-08T07:19:09.321Z,5.17
2018-04-08T07:22:11.043Z,7.53
2018-04-08T07:25:12.772Z,7.60
2018-04-08T07:28:14.579Z,7.97
2018-04-08T07:31:16.335Z,8.67
2018-04-08T07:34:18.142Z,8.53
2018-04-08T07:37:19.994Z,9.50
2018-04-08T07:40:21.709Z,8.50
2018-04-08T07:43:23.607Z,8.30
2018-04-08T07:46:25.309Z,8.93
2018-04-08T07:49:27.069Z,9.07
2018-04-08T07:52:28.790Z,7.40
2018-04-08T07:58:31.418Z,6.90
2018-04-08T08:01:33.119Z,6.33
2018-04-08T08:04:34.835Z,6.53
2018-04-08T08:07:36.529Z,6.60
2018-04-08T08:10:38.329Z,5.93
2018-04-08T08:13:40.167Z,6.00
2018-04-08T08:16:41.875Z,6.80
2018-04-08T08:19:43.604Z,6.93
2018-04-08T08:22:45.313Z,6.23
2018-04-08T08:25:47.140Z,7.97
2018-04-08T08:28:48.818Z,6.40
2018-04-08T08:31:50.576Z,7.60
2018-04-08T08:34:52.348Z,7.57
2018-04-08T08:37:54.111Z,6.63
2018-04-08T08:40:55.817Z,7.20
2018-04-08T08:43:57.554Z,6.50
2018-04-08T08:46:59.259Z,6.37
2018-04-08T08:50:01.056Z,6.70
2018-04-08T08:53:02.887Z,6.20
2018-04-08T08:56:04.677Z,7.67
2018-04-08T08:59:06.370Z,6.83
2018-04-08T09:02:08.206Z,8.13
2018-04-08T09:05:09.930Z,8.83
2018-04-08T09:08:11.620Z,9.40
2018-04-08T09:11:13.341Z,9.80
2018-04-08T09:14:15.127Z,9.30
2018-04-08T09:17:16.868Z,8.83
2018-04-08T09:20:20.529Z,8.37
2018-04-08T09:23:28.317Z,8.60
2018-04-08T09:26:30.276Z,8.50
2018-04-08T09:29:32.024Z,9.13
2018-04-08T09:32:33.890Z,9.00
2018-04-08T09:35:35.736Z,8.57
2018-04-08T09:38:37.489Z,8.23
2018-04-08T09:41:39.272Z,8.50
2018-04-08T09:44:41.137Z,8.97
2018-04-08T09:47:42.820Z,8.50
2018-04-08T09:50:44.530Z,8.83
2018-04-08T09:53:46.190Z,8.50
2018-04-08T09:56:47.932Z,8.87
2018-04-08T09:59:49.642Z,8.30
2018-04-08T10:02:57.333Z,7.90
2018-04-08T10:05:59.069Z,8.33
2018-04-08T10:09:00.749Z,7.97
2018-04-08T10:12:02.555Z,7.70
2018-04-08T10:15:04.287Z,8.30
2018-04-08T10:18:06.153Z,7.50
2018-04-08T10:21:07.875Z,8.27
2018-04-08T10:24:09.660Z,7.63
2018-04-08T10:27:11.361Z,6.70
2018-04-08T10:30:13.159Z,6.30
2018-04-08T10:33:14.868Z,6.73
2018-04-08T10:36:16.574Z,6.20
2018-04-08T10:39:18.291Z,6.07
2018-04-08T10:42:20.100Z,6.57
2018-04-08T10:45:21.785Z,6.17
2018-04-08T10:48:23.587Z,5.90
2018-04-08T10:51:25.288Z,7.17
2018-04-08T10:54:27.041Z,6.37
2018-04-08T10:57:28.729Z,6.27
2018-04-08T11:00:30.574Z,5.90
2018-04-08T11:03:32.251Z,5.97
2018-04-08T11:06:33.945Z,6.47
2018-04-08T11:09:35.654Z,5.97
2018-04-08T11:12:37.384Z,5.60
2018-04-08T11:15:39.105Z,6.23
2018-04-08T11:18:41.037Z,6.83
2018-04-08T11:21:42.893Z,6.33
2018-04-08T11:24:44.646Z,5.83
2018-04-08T11:27:46.421Z,5.73
2018-04-08T11:30:48.117Z,6.53
2018-04-08T11:33:49.904Z,6.40
2018-04-08T11:36:51.618Z,5.77
2018-04-08T11:39:53.380Z,7.03
2018-04-08T11:42:55.209Z,6.30
2018-04-08T11:45:56.924Z,7.07
2018-04-08T11:48:58.718Z,7.33
2018-04-08T11:52:00.462Z,6.93
2018-04-08T11:55:02.193Z,6.43
2018-04-08T11:58:03.916Z,6.27
2018-04-08T12:01:05.617Z,6.40
2018-04-08T12:04:07.379Z,5.97
2018-04-08T12:07:09.079Z,6.20
2018-04-08T12:10:10.807Z,6.10
2018-04-08T12:13:12.604Z,5.70
2018-04-08T12:16:14.290Z,6.50
2018-04-08T12:19:16.097Z,6.23
2018-04-08T12:22:17.910Z,6.20
2018-04-08T12:25:19.642Z,6.20
2018-04-08T12:28:21.401Z,6.43
2018-04-08T12:31:23.172Z,6.13
2018-04-08T12:34:24.952Z,6.80
2018-04-08T12:37:26.877Z,6.27
2018-04-08T12:40:28.641Z,7.70
2018-04-08T12:43:30.400Z,7.83
2018-04-08T12:46:32.188Z,7.37
2018-04-08T12:49:33.910Z,6.83
2018-04-08T12:52:35.615Z,7.13
2018-04-08T12:55:37.340Z,6.90
2018-04-08T12:58:39.021Z,6.60
2018-04-08T13:01:40.757Z,6.10
2018-04-08T13:04:42.749Z,6.93
2018-04-08T13:07:44.570Z,6.80
2018-04-08T13:10:46.262Z,7.10
2018-04-08T13:13:48.035Z,6.37
2018-04-08T13:16:49.796Z,6.67
2018-04-08T13:19:51.505Z,6.40
2018-04-08T13:22:53.223Z,6.73
2018-04-08T13:25:54.954Z,7.93
2018-04-08T13:28:56.650Z,7.13
2018-04-08T13:31:58.349Z,6.97
2018-04-08T13:35:00.073Z,7.20
2018-04-08T13:38:01.992Z,6.30
2018-04-08T13:41:03.841Z,6.07
2018-04-08T13:44:05.547Z,6.50
2018-04-08T13:47:07.253Z,6.17
2018-04-08T13:50:09.039Z,5.90
2018-04-08T13:53:10.796Z,6.00
2018-04-08T13:56:12.540Z,6.47
2018-04-08T13:59:14.291Z,5.63
2018-04-08T14:02:15.996Z,6.47
2018-04-08T14:05:17.765Z,6.33
2018-04-08T14:08:19.441Z,6.73
2018-04-08T14:11:21.220Z,6.53
2018-04-08T14:14:23.023Z,5.67
2018-04-08T14:17:24.667Z,5.70
2018-04-08T14:20:26.399Z,6.07
2018-04-08T14:23:28.104Z,5.93
2018-04-08T14:26:29.881Z,5.87
2018-04-08T14:29:31.604Z,6.13
2018-04-08T14:32:33.345Z,6.00
2018-04-08T14:35:35.051Z,6.13
2018-04-08T14:38:36.742Z,6.03
2018-04-08T14:41:38.535Z,6.10
2018-04-08T14:44:40.219Z,6.33
2018-04-08T14:47:41.955Z,6.17
2018-04-08T14:50:43.695Z,6.80
2018-04-08T14:53:45.420Z,6.90
2018-04-08T14:56:47.105Z,6.33
2018-04-08T14:59:48.834Z,6.40
2018-04-08T15:02:50.577Z,7.23
